sensor_id;sensor_type;location;lat;lon;timestamp;pressure;altitude;pressure_sealevel;temperature;humidity
49645;BME280;36494;50.730;-1.932;2022-08-03T00:01:18;100981.17;;;18.89;100.00
49645;BME280;36494;50.730;-1.932;2022-08-03T00:03:44;100979.69;;;18.81;100.00
49645;BME280;36494;50.730;-1.932;2022-08-03T00:06:09;100980.84;;;19.00;100.00
49645;BME280;36494;50.730;-1.932;2022-08-03T00:08:34;100975.20;;;18.95;100.00
49645;BME280;36494;50.730;-1.932;2022-08-03T00:11:00;100976.47;;;18.94;100.00
49645;BME280;36494;50.730;-1.932;2022-08-03T00:13:25;100979.43;;;18.94;100.00
49645;BME280;36494;50.730;-1.932;2022-08-03T00:15:51;100978.35;;;18.94;100.00
49645;BME280;36494;50.730;-1.932;2022-08-03T00:18:16;100978.78;;;19.01;100.00
49645;BME280;36494;50.730;-1.932;2022-08-03T00:20:41;100977.16;;;18.99;100.00
49645;BME280;36494;50.730;-1.932;2022-08-03T00:23:06;100979.41;;;18.84;100.00
49645;BME280;36494;50.730;-1.932;2022-08-03T00:25:33;100977.18;;;18.87;100.00
49645;BME280;36494;50.730;-1.932;2022-08-03T00:27:57;100982.68;;;18.87;100.00
49645;BME280;36494;50.730;-1.932;2022-08-03T00:30:23;100984.09;;;18.82;100.00
49645;BME280;36494;50.730;-1.932;2022-08-03T00:32:48;100977.94;;;18.90;100.00
49645;BME280;36494;50.730;-1.932;2022-08-03T00:35:13;100983.22;;;18.87;100.00
49645;BME280;36494;50.730;-1.932;2022-08-03T00:37:38;100982.69;;;18.88;100.00
49645;BME280;36494;50.730;-1.932;2022-08-03T00:40:05;100975.93;;;18.86;100.00
49645;BME280;36494;50.730;-1.932;2022-08-03T00:42:29;100972.78;;;18.95;100.00
49645;BME280;36494;50.730;-1.932;2022-08-03T00:44:55;100968.77;;;18.81;100.00
49645;BME280;36494;50.730;-1.932;2022-08-03T00:47:20;100966.92;;;18.81;100.00
49645;BME280;36494;50.730;-1.932;2022-08-03T00:49:45;100968.19;;;18.86;100.00
49645;BME280;36494;50.730;-1.932;2022-08-03T00:52:12;100969.51;;;18.88;100.00
49645;BME280;36494;50.730;-1.932;2022-08-03T00:54:37;100964.10;;;18.88;100.00
49645;BME280;36494;50.730;-1.932;2022-08-03T00:57:01;100966.86;;;18.94;100.00
49645;BME280;36494;50.730;-1.932;2022-08-03T00:59:29;100959.91;;;18.97;100.00
49645;BME280;36494;50.730;-1.932;2022-08-03T01:01:52;100963.10;;;18.99;100.00
49645;BME280;36494;50.730;-1.932;2022-08-03T01:04:17;100956.48;;;18.96;100.00
49645;BME280;36494;50.730;-1.932;2022-08-03T01:06:49;100957.98;;;18.97;100.00
49645;BME280;36494;50.730;-1.932;2022-08-03T01:09:14;100955.35;;;19.01;100.00
49645;BME280;36494;50.730;-1.932;2022-08-03T01:11:38;100957.81;;;19.02;100.00
49645;BME280;36494;50.730;-1.932;2022-08-03T01:14:03;100956.16;;;18.89;100.00
49645;BME280;36494;50.730;-1.932;2022-08-03T01:16:28;100957.07;;;18.94;100.00
49645;BME280;36494;50.730;-1.932;2022-08-03T01:18:52;100954.21;;;18.90;100.00
49645;BME280;36494;50.730;-1.932;2022-08-03T01:21:20;100951.98;;;18.87;100.00
49645;BME280;36494;50.730;-1.932;2022-08-03T01:23:52;100955.29;;;18.91;100.00
49645;BME280;36494;50.730;-1.932;2022-08-03T01:26:19;100951.81;;;18.78;100.00
49645;BME280;36494;50.730;-1.932;2022-08-03T01:28:47;100951.31;;;18.85;100.00
49645;BME280;36494;50.730;-1.932;2022-08-03T01:30:59;100952.75;;;18.73;100.00
49645;BME280;36494;50.730;-1.932;2022-08-03T01:33:24;100951.54;;;18.80;100.00
49645;BME280;36494;50.730;-1.932;2022-08-03T01:35:49;100945.87;;;18.88;100.00
49645;BME280;36494;50.730;-1.932;2022-08-03T01:38:14;100945.48;;;18.90;100.00
49645;BME280;36494;50.730;-1.932;2022-08-03T01:40:39;100948.77;;;18.84;100.00
49645;BME280;36494;50.730;-1.932;2022-08-03T01:43:03;100948.43;;;18.85;100.00
49645;BME280;36494;50.730;-1.932;2022-08-03T01:45:28;100945.55;;;18.85;100.00
49645;BME280;36494;50.730;-1.932;2022-08-03T01:47:54;100947.08;;;18.79;100.00
49645;BME280;36494;50.730;-1.932;2022-08-03T01:50:21;100940.65;;;18.76;100.00
49645;BME280;36494;50.730;-1.932;2022-08-03T01:52:44;100943.68;;;18.72;100.00
49645;BME280;36494;50.730;-1.932;2022-08-03T01:55:09;100941.47;;;18.78;100.00
49645;BME280;36494;50.730;-1.932;2022-08-03T01:57:35;100937.80;;;18.83;100.00
49645;BME280;36494;50.730;-1.932;2022-08-03T02:00:00;100938.80;;;18.88;100.00
49645;BME280;36494;50.730;-1.932;2022-08-03T02:02:25;100939.94;;;18.91;100.00
49645;BME280;36494;50.730;-1.932;2022-08-03T02:04:52;100939.25;;;18.84;100.00
49645;BME280;36494;50.730;-1.932;2022-08-03T02:07:16;100936.23;;;18.92;100.00
49645;BME280;36494;50.730;-1.932;2022-08-03T02:09:43;100935.68;;;18.89;100.00
49645;BME280;36494;50.730;-1.932;2022-08-03T02:12:08;100937.85;;;18.86;100.00
49645;BME280;36494;50.730;-1.932;2022-08-03T02:14:32;100935.59;;;18.91;100.00
49645;BME280;36494;50.730;-1.932;2022-08-03T02:16:57;100935.06;;;18.84;100.00
49645;BME280;36494;50.730;-1.932;2022-08-03T02:19:24;100937.81;;;18.90;100.00
49645;BME280;36494;50.730;-1.932;2022-08-03T02:21:48;100938.56;;;18.96;100.00
49645;BME280;36494;50.730;-1.932;2022-08-03T02:24:13;100936.17;;;18.94;100.00
49645;BME280;36494;50.730;-1.932;2022-08-03T02:26:39;100935.84;;;18.83;100.00
49645;BME280;36494;50.730;-1.932;2022-08-03T02:29:06;100936.25;;;18.83;100.00
49645;BME280;36494;50.730;-1.932;2022-08-03T02:31:32;100933.15;;;18.77;100.00
49645;BME280;36494;50.730;-1.932;2022-08-03T02:33:58;100932.07;;;18.75;100.00
49645;BME280;36494;50.730;-1.932;2022-08-03T02:36:22;100929.21;;;18.84;100.00
49645;BME280;36494;50.730;-1.932;2022-08-03T02:38:48;100932.53;;;18.73;100.00
49645;BME280;36494;50.730;-1.932;2022-08-03T02:41:14;100931.23;;;18.78;100.00
49645;BME280;36494;50.730;-1.932;2022-08-03T02:43:36;100929.86;;;18.77;100.00
49645;BME280;36494;50.730;-1.932;2022-08-03T02:46:01;100927.70;;;18.72;100.00
49645;BME280;36494;50.730;-1.932;2022-08-03T02:48:28;100928.30;;;18.72;100.00
49645;BME280;36494;50.730;-1.932;2022-08-03T02:50:53;100928.25;;;18.59;100.00
49645;BME280;36494;50.730;-1.932;2022-08-03T02:53:18;100926.16;;;18.63;100.00
49645;BME280;36494;50.730;-1.932;2022-08-03T02:55:44;100931.15;;;18.38;100.00
49645;BME280;36494;50.730;-1.932;2022-08-03T02:58:10;100935.30;;;18.41;100.00
49645;BME280;36494;50.730;-1.932;2022-08-03T03:00:35;100932.22;;;18.46;100.00
49645;BME280;36494;50.730;-1.932;2022-08-03T03:03:01;100932.26;;;18.47;100.00
49645;BME280;36494;50.730;-1.932;2022-08-03T03:05:25;100939.78;;;18.29;100.00
49645;BME280;36494;50.730;-1.932;2022-08-03T03:07:50;100943.81;;;18.33;100.00
49645;BME280;36494;50.730;-1.932;2022-08-03T03:10:15;100936.71;;;18.47;100.00
49645;BME280;36494;50.730;-1.932;2022-08-03T03:12:41;100929.68;;;18.54;100.00
49645;BME280;36494;50.730;-1.932;2022-08-03T03:15:06;100928.63;;;18.61;100.00
49645;BME280;36494;50.730;-1.932;2022-08-03T03:17:32;100939.53;;;18.54;100.00
49645;BME280;36494;50.730;-1.932;2022-08-03T03:19:56;100938.94;;;18.63;100.00
49645;BME280;36494;50.730;-1.932;2022-08-03T03:22:23;100942.40;;;18.66;100.00
49645;BME280;36494;50.730;-1.932;2022-08-03T03:24:48;100941.77;;;18.54;100.00
49645;BME280;36494;50.730;-1.932;2022-08-03T03:27:13;100938.87;;;18.64;100.00
49645;BME280;36494;50.730;-1.932;2022-08-03T03:29:38;100942.19;;;18.56;100.00
49645;BME280;36494;50.730;-1.932;2022-08-03T03:32:04;100945.87;;;18.58;100.00
49645;BME280;36494;50.730;-1.932;2022-08-03T03:34:29;100945.68;;;18.51;100.00
49645;BME280;36494;50.730;-1.932;2022-08-03T03:36:54;100946.12;;;18.48;100.00
49645;BME280;36494;50.730;-1.932;2022-08-03T03:39:19;100949.64;;;18.43;100.00
49645;BME280;36494;50.730;-1.932;2022-08-03T03:41:45;100945.60;;;18.55;100.00
49645;BME280;36494;50.730;-1.932;2022-08-03T03:44:11;100945.71;;;18.58;100.00
49645;BME280;36494;50.730;-1.932;2022-08-03T03:46:36;100942.93;;;18.50;100.00
49645;BME280;36494;50.730;-1.932;2022-08-03T03:49:01;100939.90;;;18.58;100.00
49645;BME280;36494;50.730;-1.932;2022-08-03T03:51:26;100944.79;;;18.51;100.00
49645;BME280;36494;50.730;-1.932;2022-08-03T03:53:54;100944.76;;;18.45;100.00
49645;BME280;36494;50.730;-1.932;2022-08-03T03:56:17;100947.29;;;18.19;100.00
49645;BME280;36494;50.730;-1.932;2022-08-03T03:58:43;100951.08;;;18.21;100.00
49645;BME280;36494;50.730;-1.932;2022-08-03T04:01:08;100957.05;;;18.13;100.00
49645;BME280;36494;50.730;-1.932;2022-08-03T04:03:34;100958.27;;;18.13;100.00
49645;BME280;36494;50.730;-1.932;2022-08-03T04:05:59;100952.73;;;18.18;100.00
49645;BME280;36494;50.730;-1.932;2022-08-03T04:08:24;100950.61;;;18.21;100.00
49645;BME280;36494;50.730;-1.932;2022-08-03T04:10:58;100954.37;;;18.17;100.00
49645;BME280;36494;50.730;-1.932;2022-08-03T04:13:16;100956.81;;;18.10;100.00
49645;BME280;36494;50.730;-1.932;2022-08-03T04:15:41;100956.33;;;17.95;100.00
49645;BME280;36494;50.730;-1.932;2022-08-03T04:18:08;100959.06;;;18.08;100.00
49645;BME280;36494;50.730;-1.932;2022-08-03T04:20:34;100962.38;;;17.88;100.00
49645;BME280;36494;50.730;-1.932;2022-08-03T04:22:57;100968.39;;;17.87;100.00
49645;BME280;36494;50.730;-1.932;2022-08-03T04:25:24;100966.36;;;18.01;100.00
49645;BME280;36494;50.730;-1.932;2022-08-03T04:27:48;100964.03;;;18.10;100.00
49645;BME280;36494;50.730;-1.932;2022-08-03T04:30:13;100965.35;;;18.01;100.00
49645;BME280;36494;50.730;-1.932;2022-08-03T04:32:39;100965.66;;;18.09;100.00
49645;BME280;36494;50.730;-1.932;2022-08-03T04:35:05;100968.79;;;17.94;100.00
49645;BME280;36494;50.730;-1.932;2022-08-03T04:37:35;100964.49;;;17.91;100.00
49645;BME280;36494;50.730;-1.932;2022-08-03T04:39:56;100962.33;;;17.93;100.00
49645;BME280;36494;50.730;-1.932;2022-08-03T04:42:21;100965.64;;;17.82;100.00
49645;BME280;36494;50.730;-1.932;2022-08-03T04:44:46;100963.56;;;17.88;100.00
49645;BME280;36494;50.730;-1.932;2022-08-03T04:47:11;100964.67;;;17.92;100.00
49645;BME280;36494;50.730;-1.932;2022-08-03T04:49:36;100972.10;;;17.90;100.00
49645;BME280;36494;50.730;-1.932;2022-08-03T04:52:01;100970.71;;;17.89;100.00
49645;BME280;36494;50.730;-1.932;2022-08-03T04:54:26;100969.76;;;18.03;100.00
49645;BME280;36494;50.730;-1.932;2022-08-03T04:56:52;100970.06;;;17.79;100.00
49645;BME280;36494;50.730;-1.932;2022-08-03T04:59:17;100973.83;;;17.87;100.00
49645;BME280;36494;50.730;-1.932;2022-08-03T05:01:42;100978.74;;;17.84;100.00
49645;BME280;36494;50.730;-1.932;2022-08-03T05:04:07;100978.35;;;17.91;100.00
49645;BME280;36494;50.730;-1.932;2022-08-03T05:06:33;100974.41;;;17.89;100.00
49645;BME280;36494;50.730;-1.932;2022-08-03T05:08:58;100983.64;;;17.67;100.00
49645;BME280;36494;50.730;-1.932;2022-08-03T05:11:24;100979.47;;;17.80;100.00
49645;BME280;36494;50.730;-1.932;2022-08-03T05:13:49;100976.07;;;17.89;100.00
49645;BME280;36494;50.730;-1.932;2022-08-03T05:16:14;100969.46;;;17.90;100.00
49645;BME280;36494;50.730;-1.932;2022-08-03T05:18:40;100973.98;;;17.72;100.00
49645;BME280;36494;50.730;-1.932;2022-08-03T05:21:05;100974.85;;;17.86;100.00
49645;BME280;36494;50.730;-1.932;2022-08-03T05:23:30;100974.57;;;17.87;100.00
49645;BME280;36494;50.730;-1.932;2022-08-03T05:25:56;100980.80;;;17.75;100.00
49645;BME280;36494;50.730;-1.932;2022-08-03T05:28:21;100982.03;;;17.79;100.00
49645;BME280;36494;50.730;-1.932;2022-08-03T05:30:47;100977.55;;;17.95;100.00
49645;BME280;36494;50.730;-1.932;2022-08-03T05:33:12;100984.20;;;17.80;100.00
49645;BME280;36494;50.730;-1.932;2022-08-03T05:35:37;100989.05;;;17.77;100.00
49645;BME280;36494;50.730;-1.932;2022-08-03T05:38:03;100990.55;;;17.81;100.00
49645;BME280;36494;50.730;-1.932;2022-08-03T05:40:28;100994.25;;;17.83;100.00
49645;BME280;36494;50.730;-1.932;2022-08-03T05:42:53;100997.21;;;17.79;100.00
49645;BME280;36494;50.730;-1.932;2022-08-03T05:45:19;101003.47;;;17.50;100.00
49645;BME280;36494;50.730;-1.932;2022-08-03T05:47:44;101007.00;;;17.72;100.00
49645;BME280;36494;50.730;-1.932;2022-08-03T05:50:09;101007.33;;;17.73;100.00
49645;BME280;36494;50.730;-1.932;2022-08-03T05:52:34;101004.54;;;17.74;100.00
49645;BME280;36494;50.730;-1.932;2022-08-03T05:55:00;101007.69;;;17.80;100.00
49645;BME280;36494;50.730;-1.932;2022-08-03T05:57:25;101010.93;;;17.75;100.00
49645;BME280;36494;50.730;-1.932;2022-08-03T05:59:51;101014.35;;;17.67;100.00
49645;BME280;36494;50.730;-1.932;2022-08-03T06:02:16;101022.09;;;17.65;100.00
49645;BME280;36494;50.730;-1.932;2022-08-03T06:04:41;101022.90;;;17.68;100.00
49645;BME280;36494;50.730;-1.932;2022-08-03T06:07:06;101019.72;;;17.76;100.00
49645;BME280;36494;50.730;-1.932;2022-08-03T06:09:32;101020.09;;;17.72;100.00
49645;BME280;36494;50.730;-1.932;2022-08-03T06:11:57;101020.54;;;17.78;100.00
49645;BME280;36494;50.730;-1.932;2022-08-03T06:14:22;101017.54;;;17.75;100.00
49645;BME280;36494;50.730;-1.932;2022-08-03T06:16:47;101022.04;;;17.72;100.00
49645;BME280;36494;50.730;-1.932;2022-08-03T06:19:13;101028.86;;;17.77;100.00
49645;BME280;36494;50.730;-1.932;2022-08-03T06:21:38;101032.48;;;17.76;100.00
49645;BME280;36494;50.730;-1.932;2022-08-03T06:24:03;101037.15;;;17.70;100.00
49645;BME280;36494;50.730;-1.932;2022-08-03T06:26:29;101036.68;;;17.84;100.00
49645;BME280;36494;50.730;-1.932;2022-08-03T06:28:54;101033.88;;;17.93;100.00
49645;BME280;36494;50.730;-1.932;2022-08-03T06:31:20;101034.90;;;17.79;100.00
49645;BME280;36494;50.730;-1.932;2022-08-03T06:33:44;101035.07;;;17.80;100.00
49645;BME280;36494;50.730;-1.932;2022-08-03T06:36:10;101034.56;;;17.88;100.00
49645;BME280;36494;50.730;-1.932;2022-08-03T06:38:35;101038.08;;;17.87;100.00
49645;BME280;36494;50.730;-1.932;2022-08-03T06:41:00;101036.28;;;17.94;100.00
49645;BME280;36494;50.730;-1.932;2022-08-03T06:43:25;101040.06;;;17.89;100.00
49645;BME280;36494;50.730;-1.932;2022-08-03T06:45:51;101035.65;;;17.97;100.00
49645;BME280;36494;50.730;-1.932;2022-08-03T06:48:16;101033.21;;;17.91;100.00
49645;BME280;36494;50.730;-1.932;2022-08-03T06:50:41;101039.86;;;17.89;100.00
49645;BME280;36494;50.730;-1.932;2022-08-03T06:53:07;101037.07;;;17.99;100.00
49645;BME280;36494;50.730;-1.932;2022-08-03T06:55:32;101035.76;;;17.99;100.00
49645;BME280;36494;50.730;-1.932;2022-08-03T06:57:58;101036.21;;;18.01;100.00
49645;BME280;36494;50.730;-1.932;2022-08-03T07:00:23;101032.93;;;18.00;100.00
49645;BME280;36494;50.730;-1.932;2022-08-03T07:02:48;101038.61;;;17.94;100.00
49645;BME280;36494;50.730;-1.932;2022-08-03T07:05:14;101046.42;;;17.89;100.00
49645;BME280;36494;50.730;-1.932;2022-08-03T07:07:39;101046.51;;;17.96;100.00
49645;BME280;36494;50.730;-1.932;2022-08-03T07:10:06;101043.07;;;17.88;100.00
49645;BME280;36494;50.730;-1.932;2022-08-03T07:12:31;101039.99;;;17.96;100.00
49645;BME280;36494;50.730;-1.932;2022-08-03T07:14:57;101042.86;;;18.03;100.00
49645;BME280;36494;50.730;-1.932;2022-08-03T07:17:21;101045.11;;;17.97;100.00
49645;BME280;36494;50.730;-1.932;2022-08-03T07:19:46;101043.73;;;18.10;100.00
49645;BME280;36494;50.730;-1.932;2022-08-03T07:22:11;101047.42;;;17.91;100.00
49645;BME280;36494;50.730;-1.932;2022-08-03T07:24:36;101051.01;;;18.05;100.00
49645;BME280;36494;50.730;-1.932;2022-08-03T07:27:02;101052.33;;;17.95;100.00
49645;BME280;36494;50.730;-1.932;2022-08-03T07:29:28;101054.63;;;18.09;100.00
49645;BME280;36494;50.730;-1.932;2022-08-03T07:31:54;101054.19;;;18.09;100.00
49645;BME280;36494;50.730;-1.932;2022-08-03T07:34:19;101048.87;;;18.09;100.00
49645;BME280;36494;50.730;-1.932;2022-08-03T07:36:44;101050.08;;;18.08;100.00
49645;BME280;36494;50.730;-1.932;2022-08-03T07:39:09;101047.46;;;18.09;100.00
49645;BME280;36494;50.730;-1.932;2022-08-03T07:41:34;101052.10;;;18.10;100.00
49645;BME280;36494;50.730;-1.932;2022-08-03T07:44:00;101052.33;;;18.19;100.00
49645;BME280;36494;50.730;-1.932;2022-08-03T07:46:25;101052.67;;;18.17;100.00
49645;BME280;36494;50.730;-1.932;2022-08-03T07:48:51;101044.70;;;18.25;100.00
49645;BME280;36494;50.730;-1.932;2022-08-03T07:51:16;101053.24;;;17.90;100.00
49645;BME280;36494;50.730;-1.932;2022-08-03T07:53:42;101056.45;;;18.07;100.00
49645;BME280;36494;50.730;-1.932;2022-08-03T07:56:07;101055.81;;;17.96;100.00
49645;BME280;36494;50.730;-1.932;2022-08-03T07:58:35;101064.85;;;18.05;100.00
49645;BME280;36494;50.730;-1.932;2022-08-03T08:00:59;101062.36;;;18.11;100.00
49645;BME280;36494;50.730;-1.932;2022-08-03T08:03:25;101060.39;;;18.03;100.00
49645;BME280;36494;50.730;-1.932;2022-08-03T08:05:50;101065.07;;;18.09;100.00
49645;BME280;36494;50.730;-1.932;2022-08-03T08:08:15;101060.37;;;18.19;100.00
49645;BME280;36494;50.730;-1.932;2022-08-03T08:10:41;101056.43;;;18.21;100.00
49645;BME280;36494;50.730;-1.932;2022-08-03T08:13:06;101058.15;;;18.12;100.00
49645;BME280;36494;50.730;-1.932;2022-08-03T08:15:32;101060.04;;;18.18;100.00
49645;BME280;36494;50.730;-1.932;2022-08-03T08:17:59;101058.42;;;18.19;100.00
49645;BME280;36494;50.730;-1.932;2022-08-03T08:20:25;101056.23;;;18.26;100.00
49645;BME280;36494;50.730;-1.932;2022-08-03T08:22:49;101058.24;;;18.24;100.00
49645;BME280;36494;50.730;-1.932;2022-08-03T08:25:14;101059.88;;;18.24;100.00
49645;BME280;36494;50.730;-1.932;2022-08-03T08:27:41;101063.05;;;18.06;100.00
49645;BME280;36494;50.730;-1.932;2022-08-03T08:30:06;101068.57;;;18.05;100.00
49645;BME280;36494;50.730;-1.932;2022-08-03T08:32:30;101070.82;;;18.10;100.00
49645;BME280;36494;50.730;-1.932;2022-08-03T08:34:56;101075.82;;;18.04;100.00
49645;BME280;36494;50.730;-1.932;2022-08-03T08:37:21;101080.78;;;18.08;100.00
49645;BME280;36494;50.730;-1.932;2022-08-03T08:39:47;101076.84;;;18.08;100.00
49645;BME280;36494;50.730;-1.932;2022-08-03T08:42:14;101073.16;;;18.19;100.00
49645;BME280;36494;50.730;-1.932;2022-08-03T08:44:38;101068.74;;;18.26;100.00
49645;BME280;36494;50.730;-1.932;2022-08-03T08:47:03;101065.90;;;18.25;100.00
49645;BME280;36494;50.730;-1.932;2022-08-03T08:49:28;101068.82;;;18.36;100.00
49645;BME280;36494;50.730;-1.932;2022-08-03T08:51:54;101063.29;;;18.41;100.00
49645;BME280;36494;50.730;-1.932;2022-08-03T08:54:20;101059.76;;;18.29;100.00
49645;BME280;36494;50.730;-1.932;2022-08-03T08:56:46;101058.84;;;18.31;100.00
49645;BME280;36494;50.730;-1.932;2022-08-03T08:59:11;101057.91;;;18.46;100.00
49645;BME280;36494;50.730;-1.932;2022-08-03T09:01:36;101053.70;;;18.50;100.00
49645;BME280;36494;50.730;-1.932;2022-08-03T09:04:05;101053.53;;;18.36;100.00
49645;BME280;36494;50.730;-1.932;2022-08-03T09:06:27;101056.52;;;18.42;100.00
49645;BME280;36494;50.730;-1.932;2022-08-03T09:08:52;101050.91;;;18.56;100.00
49645;BME280;36494;50.730;-1.932;2022-08-03T09:11:20;101053.36;;;18.53;100.00
49645;BME280;36494;50.730;-1.932;2022-08-03T09:13:43;101050.75;;;18.56;100.00
49645;BME280;36494;50.730;-1.932;2022-08-03T09:16:10;101046.99;;;18.62;100.00
49645;BME280;36494;50.730;-1.932;2022-08-03T09:18:33;101045.73;;;18.50;100.00
49645;BME280;36494;50.730;-1.932;2022-08-03T09:21:13;101049.41;;;18.55;100.00
49645;BME280;36494;50.730;-1.932;2022-08-03T09:23:31;101050.11;;;18.67;100.00
49645;BME280;36494;50.730;-1.932;2022-08-03T09:25:56;101045.23;;;18.58;100.00
49645;BME280;36494;50.730;-1.932;2022-08-03T09:28:16;101040.54;;;18.75;100.00
49645;BME280;36494;50.730;-1.932;2022-08-03T09:30:42;101044.21;;;18.61;100.00
49645;BME280;36494;50.730;-1.932;2022-08-03T09:33:08;101042.90;;;18.76;100.00
49645;BME280;36494;50.730;-1.932;2022-08-03T09:35:32;101032.41;;;18.83;100.00
49645;BME280;36494;50.730;-1.932;2022-08-03T09:38:09;101031.19;;;18.83;100.00
49645;BME280;36494;50.730;-1.932;2022-08-03T09:42:54;101031.66;;;18.86;100.00
49645;BME280;36494;50.730;-1.932;2022-08-03T09:47:38;101031.19;;;18.96;100.00
49645;BME280;36494;50.730;-1.932;2022-08-03T09:50:05;101028.43;;;18.94;100.00
49645;BME280;36494;50.730;-1.932;2022-08-03T09:52:30;101025.46;;;18.91;100.00
49645;BME280;36494;50.730;-1.932;2022-08-03T09:54:54;101027.72;;;18.90;100.00
49645;BME280;36494;50.730;-1.932;2022-08-03T09:57:21;101023.40;;;18.95;100.00
49645;BME280;36494;50.730;-1.932;2022-08-03T09:59:45;101024.26;;;18.96;100.00
49645;BME280;36494;50.730;-1.932;2022-08-03T10:02:19;101023.47;;;18.96;100.00
49645;BME280;36494;50.730;-1.932;2022-08-03T10:04:45;101026.45;;;18.81;100.00
49645;BME280;36494;50.730;-1.932;2022-08-03T10:07:04;101025.84;;;18.76;100.00
49645;BME280;36494;50.730;-1.932;2022-08-03T10:09:26;101021.08;;;18.85;100.00
49645;BME280;36494;50.730;-1.932;2022-08-03T10:11:52;101019.74;;;18.93;100.00
49645;BME280;36494;50.730;-1.932;2022-08-03T10:14:17;101015.99;;;19.04;100.00
49645;BME280;36494;50.730;-1.932;2022-08-03T10:16:42;101010.63;;;18.99;100.00
49645;BME280;36494;50.730;-1.932;2022-08-03T10:19:07;101004.05;;;18.91;100.00
49645;BME280;36494;50.730;-1.932;2022-08-03T10:21:34;101006.22;;;19.07;100.00
49645;BME280;36494;50.730;-1.932;2022-08-03T10:23:58;101003.52;;;19.15;100.00
49645;BME280;36494;50.730;-1.932;2022-08-03T10:26:24;101003.72;;;19.09;100.00
49645;BME280;36494;50.730;-1.932;2022-08-03T10:28:52;101006.20;;;19.09;100.00
49645;BME280;36494;50.730;-1.932;2022-08-03T10:31:15;101009.50;;;19.13;100.00
49645;BME280;36494;50.730;-1.932;2022-08-03T10:33:43;101002.61;;;19.18;100.00
49645;BME280;36494;50.730;-1.932;2022-08-03T10:36:05;101006.98;;;19.11;100.00
49645;BME280;36494;50.730;-1.932;2022-08-03T10:38:34;101007.86;;;19.15;100.00
49645;BME280;36494;50.730;-1.932;2022-08-03T10:40:56;101006.71;;;19.05;100.00
49645;BME280;36494;50.730;-1.932;2022-08-03T10:43:25;101005.32;;;19.07;100.00
49645;BME280;36494;50.730;-1.932;2022-08-03T10:45:47;101005.94;;;19.13;100.00
49645;BME280;36494;50.730;-1.932;2022-08-03T10:48:12;101005.27;;;19.13;100.00
49645;BME280;36494;50.730;-1.932;2022-08-03T10:50:38;101006.87;;;19.19;100.00
49645;BME280;36494;50.730;-1.932;2022-08-03T10:53:05;101006.02;;;19.24;100.00
49645;BME280;36494;50.730;-1.932;2022-08-03T10:55:31;101007.53;;;19.38;100.00
49645;BME280;36494;50.730;-1.932;2022-08-03T10:57:54;101009.76;;;19.24;100.00
49645;BME280;36494;50.730;-1.932;2022-08-03T11:00:20;101003.08;;;19.34;100.00
49645;BME280;36494;50.730;-1.932;2022-08-03T11:03:01;101002.86;;;19.43;100.00
49645;BME280;36494;50.730;-1.932;2022-08-03T11:05:25;101000.37;;;19.42;100.00
49645;BME280;36494;50.730;-1.932;2022-08-03T11:07:35;100996.40;;;19.43;100.00
49645;BME280;36494;50.730;-1.932;2022-08-03T11:10:00;100995.39;;;19.44;100.00
49645;BME280;36494;50.730;-1.932;2022-08-03T11:12:27;100996.24;;;19.55;100.00
49645;BME280;36494;50.730;-1.932;2022-08-03T11:14:52;100991.93;;;19.51;100.00
49645;BME280;36494;50.730;-1.932;2022-08-03T11:17:17;100997.25;;;19.46;100.00
49645;BME280;36494;50.730;-1.932;2022-08-03T11:19:44;100995.33;;;19.53;100.00
49645;BME280;36494;50.730;-1.932;2022-08-03T11:22:08;100994.84;;;19.55;100.00
49645;BME280;36494;50.730;-1.932;2022-08-03T11:29:26;100992.46;;;19.69;100.00
49645;BME280;36494;50.730;-1.932;2022-08-03T11:31:50;100990.93;;;19.59;100.00
49645;BME280;36494;50.730;-1.932;2022-08-03T11:34:15;100992.61;;;19.68;100.00
49645;BME280;36494;50.730;-1.932;2022-08-03T11:39:13;100991.18;;;19.84;100.00
49645;BME280;36494;50.730;-1.932;2022-08-03T11:41:31;100992.01;;;19.79;100.00
49645;BME280;36494;50.730;-1.932;2022-08-03T11:43:56;100988.88;;;19.88;100.00
49645;BME280;36494;50.730;-1.932;2022-08-03T11:46:21;100988.25;;;19.71;100.00
49645;BME280;36494;50.730;-1.932;2022-08-03T11:48:48;100987.04;;;19.84;100.00
49645;BME280;36494;50.730;-1.932;2022-08-03T11:51:20;100986.86;;;19.86;100.00
49645;BME280;36494;50.730;-1.932;2022-08-03T11:53:39;100981.80;;;20.01;100.00
49645;BME280;36494;50.730;-1.932;2022-08-03T11:56:04;100976.51;;;19.96;100.00
49645;BME280;36494;50.730;-1.932;2022-08-03T11:58:29;100978.27;;;20.00;100.00
49645;BME280;36494;50.730;-1.932;2022-08-03T12:01:03;100980.73;;;20.01;100.00
49645;BME280;36494;50.730;-1.932;2022-08-03T12:03:20;100979.39;;;20.04;100.00
49645;BME280;36494;50.730;-1.932;2022-08-03T12:05:47;100977.64;;;19.91;100.00
49645;BME280;36494;50.730;-1.932;2022-08-03T12:08:12;100982.75;;;20.06;100.00
49645;BME280;36494;50.730;-1.932;2022-08-03T12:10:37;100978.84;;;20.02;100.00
49645;BME280;36494;50.730;-1.932;2022-08-03T12:13:03;100978.31;;;20.01;100.00
49645;BME280;36494;50.730;-1.932;2022-08-03T12:15:30;100975.76;;;20.01;100.00
49645;BME280;36494;50.730;-1.932;2022-08-03T12:17:55;100979.04;;;20.04;100.00
49645;BME280;36494;50.730;-1.932;2022-08-03T12:20:21;100982.54;;;20.18;100.00
49645;BME280;36494;50.730;-1.932;2022-08-03T12:22:44;100982.70;;;20.07;100.00
49645;BME280;36494;50.730;-1.932;2022-08-03T12:25:19;100982.90;;;20.03;100.00
49645;BME280;36494;50.730;-1.932;2022-08-03T12:27:36;100985.76;;;20.08;100.00
49645;BME280;36494;50.730;-1.932;2022-08-03T12:30:03;100990.14;;;20.10;100.00
49645;BME280;36494;50.730;-1.932;2022-08-03T12:32:27;100986.72;;;20.04;100.00